sensor_id;sensor_type;location;lat;lon;timestamp;temperature;humidity
70475;DHT22;57944;48.722;9.316;2022-07-11T00:01:43;13.40;99.90
70475;DHT22;57944;48.722;9.316;2022-07-11T00:04:13;13.40;99.90
70475;DHT22;57944;48.722;9.316;2022-07-11T00:06:43;13.40;99.90
70475;DHT22;57944;48.722;9.316;2022-07-11T00:09:16;13.50;99.90
70475;DHT22;57944;48.722;9.316;2022-07-11T00:11:45;13.70;99.90
70475;DHT22;57944;48.722;9.316;2022-07-11T00:14:16;13.70;99.90
70475;DHT22;57944;48.722;9.316;2022-07-11T00:16:47;13.80;99.90
70475;DHT22;57944;48.722;9.316;2022-07-11T00:19:17;13.90;99.90
70475;DHT22;57944;48.722;9.316;2022-07-11T00:21:47;14.00;99.90
70475;DHT22;57944;48.722;9.316;2022-07-11T00:24:21;14.10;99.90
70475;DHT22;57944;48.722;9.316;2022-07-11T00:26:51;14.10;99.90
70475;DHT22;57944;48.722;9.316;2022-07-11T00:29:21;14.10;99.90
70475;DHT22;57944;48.722;9.316;2022-07-11T00:31:52;14.10;99.90
70475;DHT22;57944;48.722;9.316;2022-07-11T00:34:22;14.20;99.90
70475;DHT22;57944;48.722;9.316;2022-07-11T00:36:52;14.20;99.90
70475;DHT22;57944;48.722;9.316;2022-07-11T00:39:25;14.10;99.90
70475;DHT22;57944;48.722;9.316;2022-07-11T00:41:55;14.20;99.90
70475;DHT22;57944;48.722;9.316;2022-07-11T00:44:25;14.20;99.90
70475;DHT22;57944;48.722;9.316;2022-07-11T00:46:55;14.00;99.90
70475;DHT22;57944;48.722;9.316;2022-07-11T00:49:25;14.00;99.90
70475;DHT22;57944;48.722;9.316;2022-07-11T00:51:55;13.90;99.90
70475;DHT22;57944;48.722;9.316;2022-07-11T00:54:29;13.80;99.90
70475;DHT22;57944;48.722;9.316;2022-07-11T00:57:00;13.70;99.90
70475;DHT22;57944;48.722;9.316;2022-07-11T00:59:30;13.50;99.90
70475;DHT22;57944;48.722;9.316;2022-07-11T01:02:00;13.40;99.90
70475;DHT22;57944;48.722;9.316;2022-07-11T01:04:31;13.20;99.90
70475;DHT22;57944;48.722;9.316;2022-07-11T01:07:02;13.10;99.90
70475;DHT22;57944;48.722;9.316;2022-07-11T01:09:35;13.00;99.90
70475;DHT22;57944;48.722;9.316;2022-07-11T01:12:06;13.00;99.90
70475;DHT22;57944;48.722;9.316;2022-07-11T01:14:36;12.90;99.90
70475;DHT22;57944;48.722;9.316;2022-07-11T01:17:06;12.80;99.90
70475;DHT22;57944;48.722;9.316;2022-07-11T01:19:36;12.70;99.90
70475;DHT22;57944;48.722;9.316;2022-07-11T01:22:07;12.80;99.90
70475;DHT22;57944;48.722;9.316;2022-07-11T01:24:40;12.80;99.90
70475;DHT22;57944;48.722;9.316;2022-07-11T01:27:12;12.80;99.90
70475;DHT22;57944;48.722;9.316;2022-07-11T01:29:42;12.80;99.90
70475;DHT22;57944;48.722;9.316;2022-07-11T01:32:12;12.80;99.90
70475;DHT22;57944;48.722;9.316;2022-07-11T01:34:42;12.90;99.90
70475;DHT22;57944;48.722;9.316;2022-07-11T01:37:12;13.00;99.90
70475;DHT22;57944;48.722;9.316;2022-07-11T01:39:45;12.90;99.90
70475;DHT22;57944;48.722;9.316;2022-07-11T01:42:15;13.00;99.90
70475;DHT22;57944;48.722;9.316;2022-07-11T01:44:45;13.00;99.90
70475;DHT22;57944;48.722;9.316;2022-07-11T01:47:15;13.10;99.90
70475;DHT22;57944;48.722;9.316;2022-07-11T01:49:45;13.10;99.90
70475;DHT22;57944;48.722;9.316;2022-07-11T01:52:15;13.10;99.90
70475;DHT22;57944;48.722;9.316;2022-07-11T01:54:48;13.00;99.90
70475;DHT22;57944;48.722;9.316;2022-07-11T01:57:18;13.10;99.90
70475;DHT22;57944;48.722;9.316;2022-07-11T01:59:48;13.10;99.90
70475;DHT22;57944;48.722;9.316;2022-07-11T02:02:18;13.20;99.90
70475;DHT22;57944;48.722;9.316;2022-07-11T02:04:48;13.20;99.90
70475;DHT22;57944;48.722;9.316;2022-07-11T02:07:18;13.20;99.90
70475;DHT22;57944;48.722;9.316;2022-07-11T02:10:11;13.30;99.90
70475;DHT22;57944;48.722;9.316;2022-07-11T02:12:41;13.40;99.90
70475;DHT22;57944;48.722;9.316;2022-07-11T02:15:11;13.40;99.90
70475;DHT22;57944;48.722;9.316;2022-07-11T02:17:41;13.40;99.90
70475;DHT22;57944;48.722;9.316;2022-07-11T02:20:11;13.40;99.90
70475;DHT22;57944;48.722;9.316;2022-07-11T02:22:44;13.40;99.90
70475;DHT22;57944;48.722;9.316;2022-07-11T02:25:18;13.50;99.90
70475;DHT22;57944;48.722;9.316;2022-07-11T02:27:49;13.70;99.90
70475;DHT22;57944;48.722;9.316;2022-07-11T02:30:19;13.80;99.90
70475;DHT22;57944;48.722;9.316;2022-07-11T02:32:50;13.90;99.90
70475;DHT22;57944;48.722;9.316;2022-07-11T02:35:20;13.90;99.90
70475;DHT22;57944;48.722;9.316;2022-07-11T02:37:50;13.80;99.90
70475;DHT22;57944;48.722;9.316;2022-07-11T02:40:23;13.90;99.90
70475;DHT22;57944;48.722;9.316;2022-07-11T02:42:53;13.90;99.90
70475;DHT22;57944;48.722;9.316;2022-07-11T02:45:24;13.90;99.90
70475;DHT22;57944;48.722;9.316;2022-07-11T02:47:54;14.00;99.90
70475;DHT22;57944;48.722;9.316;2022-07-11T02:50:24;14.00;99.90
70475;DHT22;57944;48.722;9.316;2022-07-11T02:52:54;13.90;99.90
70475;DHT22;57944;48.722;9.316;2022-07-11T02:55:26;13.90;99.90
70475;DHT22;57944;48.722;9.316;2022-07-11T02:57:58;13.70;99.90
70475;DHT22;57944;48.722;9.316;2022-07-11T03:00:28;13.80;99.90
70475;DHT22;57944;48.722;9.316;2022-07-11T03:02:58;13.90;99.90
70475;DHT22;57944;48.722;9.316;2022-07-11T03:05:28;13.90;99.90
70475;DHT22;57944;48.722;9.316;2022-07-11T03:07:58;14.00;99.90
70475;DHT22;57944;48.722;9.316;2022-07-11T03:10:31;14.20;99.90
70475;DHT22;57944;48.722;9.316;2022-07-11T03:13:01;14.30;99.90
70475;DHT22;57944;48.722;9.316;2022-07-11T03:15:31;14.30;99.90
70475;DHT22;57944;48.722;9.316;2022-07-11T03:18:01;14.30;99.90
70475;DHT22;57944;48.722;9.316;2022-07-11T03:20:31;14.30;99.90
70475;DHT22;57944;48.722;9.316;2022-07-11T03:23:01;14.30;99.90
70475;DHT22;57944;48.722;9.316;2022-07-11T03:25:34;14.30;99.90
70475;DHT22;57944;48.722;9.316;2022-07-11T03:28:04;14.30;99.90
70475;DHT22;57944;48.722;9.316;2022-07-11T03:30:34;14.30;99.90
70475;DHT22;57944;48.722;9.316;2022-07-11T03:33:04;14.40;99.90
70475;DHT22;57944;48.722;9.316;2022-07-11T03:35:34;14.30;99.90
70475;DHT22;57944;48.722;9.316;2022-07-11T03:38:11;14.40;99.90
70475;DHT22;57944;48.722;9.316;2022-07-11T03:40:45;14.30;99.90
70475;DHT22;57944;48.722;9.316;2022-07-11T03:43:17;14.40;99.90
70475;DHT22;57944;48.722;9.316;2022-07-11T03:45:47;14.40;99.90
70475;DHT22;57944;48.722;9.316;2022-07-11T03:48:17;14.50;99.90
70475;DHT22;57944;48.722;9.316;2022-07-11T03:50:47;14.50;99.90
70475;DHT22;57944;48.722;9.316;2022-07-11T03:53:18;14.60;99.90
70475;DHT22;57944;48.722;9.316;2022-07-11T03:55:50;14.60;99.90
70475;DHT22;57944;48.722;9.316;2022-07-11T03:58:20;14.60;99.90
70475;DHT22;57944;48.722;9.316;2022-07-11T04:00:50;14.70;99.90
70475;DHT22;57944;48.722;9.316;2022-07-11T04:03:20;14.80;99.90
70475;DHT22;57944;48.722;9.316;2022-07-11T04:05:51;14.90;99.90
70475;DHT22;57944;48.722;9.316;2022-07-11T04:08:21;15.10;99.90
70475;DHT22;57944;48.722;9.316;2022-07-11T04:10:54;15.30;99.90
70475;DHT22;57944;48.722;9.316;2022-07-11T04:13:24;15.40;99.90
70475;DHT22;57944;48.722;9.316;2022-07-11T04:15:54;15.50;99.90
70475;DHT22;57944;48.722;9.316;2022-07-11T04:18:24;15.50;99.90
70475;DHT22;57944;48.722;9.316;2022-07-11T04:20:55;15.60;99.90
70475;DHT22;57944;48.722;9.316;2022-07-11T04:23:33;15.60;99.90
70475;DHT22;57944;48.722;9.316;2022-07-11T04:26:06;15.50;99.90
70475;DHT22;57944;48.722;9.316;2022-07-11T04:28:36;15.60;99.90
70475;DHT22;57944;48.722;9.316;2022-07-11T04:31:06;15.70;99.90
70475;DHT22;57944;48.722;9.316;2022-07-11T04:33:37;15.90;99.90
70475;DHT22;57944;48.722;9.316;2022-07-11T04:36:08;16.00;99.90
70475;DHT22;57944;48.722;9.316;2022-07-11T04:38:38;16.20;99.90
70475;DHT22;57944;48.722;9.316;2022-07-11T04:41:13;16.20;99.90
70475;DHT22;57944;48.722;9.316;2022-07-11T04:43:43;16.20;99.90
70475;DHT22;57944;48.722;9.316;2022-07-11T04:46:13;16.20;99.90
70475;DHT22;57944;48.722;9.316;2022-07-11T04:48:43;16.20;99.90
70475;DHT22;57944;48.722;9.316;2022-07-11T04:51:13;16.30;99.90
70475;DHT22;57944;48.722;9.316;2022-07-11T04:53:44;16.50;99.90
70475;DHT22;57944;48.722;9.316;2022-07-11T04:56:17;16.60;99.90
70475;DHT22;57944;48.722;9.316;2022-07-11T04:58:47;16.70;99.90
70475;DHT22;57944;48.722;9.316;2022-07-11T05:01:17;16.80;99.90
70475;DHT22;57944;48.722;9.316;2022-07-11T05:03:47;16.80;99.90
70475;DHT22;57944;48.722;9.316;2022-07-11T05:06:17;17.00;99.90
70475;DHT22;57944;48.722;9.316;2022-07-11T05:08:47;17.20;99.90
70475;DHT22;57944;48.722;9.316;2022-07-11T05:11:20;17.30;99.90
70475;DHT22;57944;48.722;9.316;2022-07-11T05:13:55;17.40;99.90
70475;DHT22;57944;48.722;9.316;2022-07-11T05:16:25;17.60;99.90
70475;DHT22;57944;48.722;9.316;2022-07-11T05:18:56;17.70;99.90
70475;DHT22;57944;48.722;9.316;2022-07-11T05:21:26;17.90;99.90
70475;DHT22;57944;48.722;9.316;2022-07-11T05:23:56;18.10;99.90
70475;DHT22;57944;48.722;9.316;2022-07-11T05:26:29;18.40;99.90
70475;DHT22;57944;48.722;9.316;2022-07-11T05:28:59;18.50;99.90
70475;DHT22;57944;48.722;9.316;2022-07-11T05:31:29;18.80;99.90
70475;DHT22;57944;48.722;9.316;2022-07-11T05:34:00;19.00;99.90
70475;DHT22;57944;48.722;9.316;2022-07-11T05:36:30;19.30;99.90
70475;DHT22;57944;48.722;9.316;2022-07-11T05:39:00;19.40;99.90
70475;DHT22;57944;48.722;9.316;2022-07-11T05:41:32;19.40;99.90
70475;DHT22;57944;48.722;9.316;2022-07-11T05:44:03;19.40;99.90
70475;DHT22;57944;48.722;9.316;2022-07-11T05:46:33;19.50;99.90
70475;DHT22;57944;48.722;9.316;2022-07-11T05:49:07;19.70;99.90
70475;DHT22;57944;48.722;9.316;2022-07-11T05:51:37;19.70;99.90
70475;DHT22;57944;48.722;9.316;2022-07-11T05:54:07;19.90;99.90
70475;DHT22;57944;48.722;9.316;2022-07-11T05:56:39;20.10;99.90
70475;DHT22;57944;48.722;9.316;2022-07-11T05:59:09;20.20;99.90
70475;DHT22;57944;48.722;9.316;2022-07-11T06:01:40;20.30;99.90
70475;DHT22;57944;48.722;9.316;2022-07-11T06:04:11;20.40;99.90
70475;DHT22;57944;48.722;9.316;2022-07-11T06:06:41;20.50;99.90
70475;DHT22;57944;48.722;9.316;2022-07-11T06:09:12;20.50;99.90
70475;DHT22;57944;48.722;9.316;2022-07-11T06:11:42;20.60;99.90
70475;DHT22;57944;48.722;9.316;2022-07-11T06:14:12;20.70;99.90
70475;DHT22;57944;48.722;9.316;2022-07-11T06:16:43;20.90;99.90
70475;DHT22;57944;48.722;9.316;2022-07-11T06:19:14;21.00;99.90
70475;DHT22;57944;48.722;9.316;2022-07-11T06:21:44;21.30;99.90
70475;DHT22;57944;48.722;9.316;2022-07-11T06:24:14;21.50;99.90
70475;DHT22;57944;48.722;9.316;2022-07-11T06:26:47;21.60;99.90
70475;DHT22;57944;48.722;9.316;2022-07-11T06:29:17;21.90;99.90
70475;DHT22;57944;48.722;9.316;2022-07-11T06:31:47;22.00;99.90
70475;DHT22;57944;48.722;9.316;2022-07-11T06:34:17;22.00;99.90
70475;DHT22;57944;48.722;9.316;2022-07-11T06:36:47;22.00;99.90
70475;DHT22;57944;48.722;9.316;2022-07-11T06:39:17;22.20;99.90
70475;DHT22;57944;48.722;9.316;2022-07-11T06:41:50;22.20;99.90
70475;DHT22;57944;48.722;9.316;2022-07-11T06:44:20;22.40;99.90
70475;DHT22;57944;48.722;9.316;2022-07-11T06:46:54;22.80;99.90
70475;DHT22;57944;48.722;9.316;2022-07-11T06:49:25;23.20;99.90
70475;DHT22;57944;48.722;9.316;2022-07-11T06:51:55;23.70;99.90
70475;DHT22;57944;48.722;9.316;2022-07-11T06:54:25;24.00;99.90
70475;DHT22;57944;48.722;9.316;2022-07-11T06:56:57;24.40;99.20
70475;DHT22;57944;48.722;9.316;2022-07-11T06:59:27;24.70;98.60
70475;DHT22;57944;48.722;9.316;2022-07-11T07:01:57;24.90;98.10
70475;DHT22;57944;48.722;9.316;2022-07-11T07:04:27;24.90;97.50
70475;DHT22;57944;48.722;9.316;2022-07-11T07:06:57;25.00;97.50
70475;DHT22;57944;48.722;9.316;2022-07-11T07:09:28;25.20;96.90
70475;DHT22;57944;48.722;9.316;2022-07-11T07:12:02;25.30;96.90
70475;DHT22;57944;48.722;9.316;2022-07-11T07:14:32;25.60;96.50
70475;DHT22;57944;48.722;9.316;2022-07-11T07:17:03;25.80;96.20
70475;DHT22;57944;48.722;9.316;2022-07-11T07:19:33;26.20;95.60
70475;DHT22;57944;48.722;9.316;2022-07-11T07:22:03;26.40;94.80
70475;DHT22;57944;48.722;9.316;2022-07-11T07:24:35;26.50;94.80
70475;DHT22;57944;48.722;9.316;2022-07-11T07:27:08;26.70;93.90
70475;DHT22;57944;48.722;9.316;2022-07-11T07:29:39;26.60;93.70
70475;DHT22;57944;48.722;9.316;2022-07-11T07:32:09;27.00;93.40
70475;DHT22;57944;48.722;9.316;2022-07-11T07:34:39;27.30;92.90
70475;DHT22;57944;48.722;9.316;2022-07-11T07:37:09;27.30;92.50
70475;DHT22;57944;48.722;9.316;2022-07-11T07:39:39;27.50;92.20
70475;DHT22;57944;48.722;9.316;2022-07-11T07:52:13;31.10;82.20
70475;DHT22;57944;48.722;9.316;2022-07-11T07:54:44;30.90;82.70
70475;DHT22;57944;48.722;9.316;2022-07-11T07:57:16;31.00;82.50
70475;DHT22;57944;48.722;9.316;2022-07-11T07:59:46;31.50;80.90
70475;DHT22;57944;48.722;9.316;2022-07-11T08:04:44;35.20;71.80
70475;DHT22;57944;48.722;9.316;2022-07-11T08:07:14;35.50;70.20
70475;DHT22;57944;48.722;9.316;2022-07-11T08:09:44;36.20;66.70
70475;DHT22;57944;48.722;9.316;2022-07-11T08:12:17;35.50;65.20
70475;DHT22;57944;48.722;9.316;2022-07-11T08:14:47;34.20;66.60
70475;DHT22;57944;48.722;9.316;2022-07-11T08:17:20;34.20;66.60
70475;DHT22;57944;48.722;9.316;2022-07-11T08:19:50;35.30;65.00
70475;DHT22;57944;48.722;9.316;2022-07-11T08:22:20;36.30;62.60
70475;DHT22;57944;48.722;9.316;2022-07-11T08:24:50;36.40;61.30
70475;DHT22;57944;48.722;9.316;2022-07-11T08:27:23;35.30;60.40
70475;DHT22;57944;48.722;9.316;2022-07-11T08:30:09;35.10;61.60
70475;DHT22;57944;48.722;9.316;2022-07-11T08:32:40;36.10;60.50
70475;DHT22;57944;48.722;9.316;2022-07-11T08:35:11;36.30;59.20
70475;DHT22;57944;48.722;9.316;2022-07-11T08:37:42;37.50;57.50
70475;DHT22;57944;48.722;9.316;2022-07-11T08:40:13;37.90;56.50
70475;DHT22;57944;48.722;9.316;2022-07-11T08:42:46;38.00;55.60
70475;DHT22;57944;48.722;9.316;2022-07-11T08:45:17;37.90;54.90
70475;DHT22;57944;48.722;9.316;2022-07-11T08:47:47;36.90;55.10
70475;DHT22;57944;48.722;9.316;2022-07-11T08:50:20;36.80;55.80
70475;DHT22;57944;48.722;9.316;2022-07-11T08:52:54;36.80;54.80
70475;DHT22;57944;48.722;9.316;2022-07-11T08:55:24;36.50;55.00
70475;DHT22;57944;48.722;9.316;2022-07-11T08:57:57;36.40;54.90
70475;DHT22;57944;48.722;9.316;2022-07-11T09:00:27;36.40;55.20
70475;DHT22;57944;48.722;9.316;2022-07-11T09:02:58;36.50;54.50
70475;DHT22;57944;48.722;9.316;2022-07-11T09:05:31;37.70;53.20
70475;DHT22;57944;48.722;9.316;2022-07-11T09:08:01;38.10;52.60
70475;DHT22;57944;48.722;9.316;2022-07-11T09:10:31;39.40;51.30
70475;DHT22;57944;48.722;9.316;2022-07-11T09:13:06;39.30;48.70
70475;DHT22;57944;48.722;9.316;2022-07-11T09:15:39;39.50;48.40
70475;DHT22;57944;48.722;9.316;2022-07-11T09:18:29;38.90;47.30
70475;DHT22;57944;48.722;9.316;2022-07-11T09:21:03;38.90;46.80
70475;DHT22;57944;48.722;9.316;2022-07-11T09:23:48;39.00;45.30
70475;DHT22;57944;48.722;9.316;2022-07-11T09:26:31;38.30;45.70
70475;DHT22;57944;48.722;9.316;2022-07-11T09:29:08;39.30;46.80
70475;DHT22;57944;48.722;9.316;2022-07-11T09:31:41;41.10;45.30
70475;DHT22;57944;48.722;9.316;2022-07-11T09:34:14;41.40;43.50
70475;DHT22;57944;48.722;9.316;2022-07-11T09:36:47;42.30;42.90
70475;DHT22;57944;48.722;9.316;2022-07-11T09:39:20;43.60;41.50
70475;DHT22;57944;48.722;9.316;2022-07-11T09:41:52;44.30;41.00
70475;DHT22;57944;48.722;9.316;2022-07-11T09:44:26;42.00;40.40
70475;DHT22;57944;48.722;9.316;2022-07-11T09:47:02;38.80;42.50
70475;DHT22;57944;48.722;9.316;2022-07-11T09:49:39;36.40;45.20
70475;DHT22;57944;48.722;9.316;2022-07-11T09:52:11;34.80;47.90
70475;DHT22;57944;48.722;9.316;2022-07-11T09:54:55;33.10;50.80
70475;DHT22;57944;48.722;9.316;2022-07-11T09:57:31;31.60;53.90
70475;DHT22;57944;48.722;9.316;2022-07-11T10:00:07;30.30;56.70
70475;DHT22;57944;48.722;9.316;2022-07-11T10:02:38;29.20;57.50
70475;DHT22;57944;48.722;9.316;2022-07-11T10:05:09;28.70;57.30
70475;DHT22;57944;48.722;9.316;2022-07-11T10:07:40;28.50;58.40
70475;DHT22;57944;48.722;9.316;2022-07-11T10:10:10;29.40;58.50
70475;DHT22;57944;48.722;9.316;2022-07-11T10:12:41;31.40;57.00
70475;DHT22;57944;48.722;9.316;2022-07-11T10:15:20;31.80;54.60
70475;DHT22;57944;48.722;9.316;2022-07-11T10:18:00;31.10;55.60
70475;DHT22;57944;48.722;9.316;2022-07-11T10:20:42;31.50;56.20
70475;DHT22;57944;48.722;9.316;2022-07-11T10:23:22;30.60;55.00
70475;DHT22;57944;48.722;9.316;2022-07-11T10:26:01;30.90;56.20
70475;DHT22;57944;48.722;9.316;2022-07-11T10:28:39;31.00;56.00
70475;DHT22;57944;48.722;9.316;2022-07-11T10:31:21;30.70;56.80
70475;DHT22;57944;48.722;9.316;2022-07-11T10:34:14;30.70;56.80
70475;DHT22;57944;48.722;9.316;2022-07-11T10:36:46;30.80;57.70
70475;DHT22;57944;48.722;9.316;2022-07-11T10:39:17;31.20;56.80
70475;DHT22;57944;48.722;9.316;2022-07-11T10:41:51;32.20;54.30
70475;DHT22;57944;48.722;9.316;2022-07-11T10:44:23;33.00;53.40
70475;DHT22;57944;48.722;9.316;2022-07-11T10:46:57;34.90;51.60
70475;DHT22;57944;48.722;9.316;2022-07-11T10:49:36;35.60;49.90
70475;DHT22;57944;48.722;9.316;2022-07-11T10:52:21;35.10;50.00
70475;DHT22;57944;48.722;9.316;2022-07-11T10:55:03;33.80;51.30
70475;DHT22;57944;48.722;9.316;2022-07-11T10:57:54;34.00;51.80
70475;DHT22;57944;48.722;9.316;2022-07-11T11:00:34;32.40;52.70
70475;DHT22;57944;48.722;9.316;2022-07-11T11:03:08;32.00;53.00
70475;DHT22;57944;48.722;9.316;2022-07-11T11:05:47;32.90;53.10
70475;DHT22;57944;48.722;9.316;2022-07-11T11:08:40;34.40;51.90
70475;DHT22;57944;48.722;9.316;2022-07-11T11:11:35;35.70;49.90
70475;DHT22;57944;48.722;9.316;2022-07-11T11:14:25;34.80;50.60
70475;DHT22;57944;48.722;9.316;2022-07-11T11:20:30;33.50;52.10
70475;DHT22;57944;48.722;9.316;2022-07-11T11:23:08;32.90;52.30
70475;DHT22;57944;48.722;9.316;2022-07-11T11:25:39;33.00;52.80
70475;DHT22;57944;48.722;9.316;2022-07-11T11:28:09;33.40;52.80
70475;DHT22;57944;48.722;9.316;2022-07-11T11:30:52;33.50;52.80
70475;DHT22;57944;48.722;9.316;2022-07-11T11:33:25;33.90;52.40
70475;DHT22;57944;48.722;9.316;2022-07-11T11:36:03;34.10;51.70
70475;DHT22;57944;48.722;9.316;2022-07-11T11:38:36;34.40;51.80
70475;DHT22;57944;48.722;9.316;2022-07-11T11:41:07;34.40;51.50
70475;DHT22;57944;48.722;9.316;2022-07-11T11:43:38;34.00;51.70
70475;DHT22;57944;48.722;9.316;2022-07-11T11:46:13;35.40;50.60
70475;DHT22;57944;48.722;9.316;2022-07-11T11:48:43;36.80;50.10
70475;DHT22;57944;48.722;9.316;2022-07-11T11:51:17;37.10;49.20
70475;DHT22;57944;48.722;9.316;2022-07-11T11:53:52;35.30;50.50
70475;DHT22;57944;48.722;9.316;2022-07-11T11:56:25;34.40;50.60
70475;DHT22;57944;48.722;9.316;2022-07-11T11:58:59;35.30;50.50
70475;DHT22;57944;48.722;9.316;2022-07-11T12:01:39;35.50;49.60
70475;DHT22;57944;48.722;9.316;2022-07-11T12:04:12;35.60;49.10
70475;DHT22;57944;48.722;9.316;2022-07-11T12:06:47;34.80;50.10
70475;DHT22;57944;48.722;9.316;2022-07-11T12:09:19;34.50;50.60
70475;DHT22;57944;48.722;9.316;2022-07-11T12:12:12;34.30;50.30
70475;DHT22;57944;48.722;9.316;2022-07-11T12:14:59;34.20;50.60
70475;DHT22;57944;48.722;9.316;2022-07-11T12:17:29;33.30;51.10
70475;DHT22;57944;48.722;9.316;2022-07-11T12:19:59;32.70;53.00
70475;DHT22;57944;48.722;9.316;2022-07-11T12:22:40;33.20;53.30
70475;DHT22;57944;48.722;9.316;2022-07-11T12:25:11;32.90;52.00
70475;DHT22;57944;48.722;9.316;2022-07-11T12:27:45;32.60;52.90
70475;DHT22;57944;48.722;9.316;2022-07-11T12:30:22;31.50;53.60
70475;DHT22;57944;48.722;9.316;2022-07-11T12:33:03;31.00;54.50
70475;DHT22;57944;48.722;9.316;2022-07-11T12:35:34;30.50;55.90
70475;DHT22;57944;48.722;9.316;2022-07-11T12:38:07;30.60;56.30
70475;DHT22;57944;48.722;9.316;2022-07-11T12:40:37;30.70;56.50
70475;DHT22;57944;48.722;9.316;2022-07-11T12:43:07;31.20;56.20
70475;DHT22;57944;48.722;9.316;2022-07-11T12:46:03;31.80;55.10
70475;DHT22;57944;48.722;9.316;2022-07-11T12:48:38;31.80;54.90
70475;DHT22;57944;48.722;9.316;2022-07-11T12:51:08;31.50;54.70
70475;DHT22;57944;48.722;9.316;2022-07-11T12:53:41;31.60;55.40
70475;DHT22;57944;48.722;9.316;2022-07-11T12:56:22;31.90;54.70
70475;DHT22;57944;48.722;9.316;2022-07-11T12:58:52;32.10;54.60
70475;DHT22;57944;48.722;9.316;2022-07-11T13:01:22;31.60;54.90
70475;DHT22;57944;48.722;9.316;2022-07-11T13:03:52;31.60;56.40
70475;DHT22;57944;48.722;9.316;2022-07-11T13:06:22;33.90;54.50
70475;DHT22;57944;48.722;9.316;2022-07-11T13:09:07;34.30;52.40
70475;DHT22;57944;48.722;9.316;2022-07-11T13:11:37;35.00;52.20
70475;DHT22;57944;48.722;9.316;2022-07-11T13:14:07;35.10;52.00
70475;DHT22;57944;48.722;9.316;2022-07-11T13:16:50;34.10;51.30
70475;DHT22;57944;48.722;9.316;2022-07-11T13:19:20;33.30;53.40
70475;DHT22;57944;48.722;9.316;2022-07-11T13:21:50;31.90;54.20
70475;DHT22;57944;48.722;9.316;2022-07-11T13:24:23;32.70;55.00
70475;DHT22;57944;48.722;9.316;2022-07-11T13:26:53;32.70;54.20
70475;DHT22;57944;48.722;9.316;2022-07-11T13:29:24;32.40;54.30
70475;DHT22;57944;48.722;9.316;2022-07-11T13:31:54;31.80;55.60
70475;DHT22;57944;48.722;9.316;2022-07-11T13:34:24;31.30;56.10
70475;DHT22;57944;48.722;9.316;2022-07-11T13:36:54;30.30;56.90
70475;DHT22;57944;48.722;9.316;2022-07-11T13:39:26;29.50;58.00
70475;DHT22;57944;48.722;9.316;2022-07-11T13:41:57;29.50;58.40
70475;DHT22;57944;48.722;9.316;2022-07-11T13:44:27;30.40;59.00
70475;DHT22;57944;48.722;9.316;2022-07-11T13:46:57;30.90;58.60
70475;DHT22;57944;48.722;9.316;2022-07-11T13:49:27;30.50;57.90
70475;DHT22;57944;48.722;9.316;2022-07-11T13:51:57;30.20;58.00
70475;DHT22;57944;48.722;9.316;2022-07-11T13:54:29;30.30;58.30
70475;DHT22;57944;48.722;9.316;2022-07-11T13:57:00;30.50;58.40
70475;DHT22;57944;48.722;9.316;2022-07-11T13:59:30;30.60;57.90
70475;DHT22;57944;48.722;9.316;2022-07-11T14:02:00;29.90;58.40
70475;DHT22;57944;48.722;9.316;2022-07-11T14:04:31;30.70;58.90
70475;DHT22;57944;48.722;9.316;2022-07-11T14:07:02;31.40;58.10
70475;DHT22;57944;48.722;9.316;2022-07-11T14:09:37;31.90;57.70
70475;DHT22;57944;48.722;9.316;2022-07-11T14:12:08;31.70;57.20
70475;DHT22;57944;48.722;9.316;2022-07-11T14:14:39;31.40;57.70
70475;DHT22;57944;48.722;9.316;2022-07-11T14:17:10;30.40;57.80
70475;DHT22;57944;48.722;9.316;2022-07-11T14:19:40;30.50;58.70
70475;DHT22;57944;48.722;9.316;2022-07-11T14:22:10;30.60;58.70
70475;DHT22;57944;48.722;9.316;2022-07-11T14:24:43;30.60;58.90
70475;DHT22;57944;48.722;9.316;2022-07-11T14:27:13;30.10;59.40
70475;DHT22;57944;48.722;9.316;2022-07-11T14:29:44;30.00;59.00
70475;DHT22;57944;48.722;9.316;2022-07-11T14:32:15;29.70;60.40
70475;DHT22;57944;48.722;9.316;2022-07-11T14:34:47;29.10;60.10
70475;DHT22;57944;48.722;9.316;2022-07-11T14:37:18;28.70;61.50
70475;DHT22;57944;48.722;9.316;2022-07-11T14:39:50;29.00;61.90
70475;DHT22;57944;48.722;9.316;2022-07-11T14:42:20;28.60;62.60
70475;DHT22;57944;48.722;9.316;2022-07-11T14:45:09;28.50;62.90
70475;DHT22;57944;48.722;9.316;2022-07-11T14:47:43;28.40;64.50
70475;DHT22;57944;48.722;9.316;2022-07-11T14:50:14;28.10;65.00
70475;DHT22;57944;48.722;9.316;2022-07-11T14:52:45;27.80;65.60
70475;DHT22;57944;48.722;9.316;2022-07-11T14:55:20;27.90;66.00
70475;DHT22;57944;48.722;9.316;2022-07-11T14:57:50;28.40;66.10
70475;DHT22;57944;48.722;9.316;2022-07-11T15:00:21;28.10;64.90
70475;DHT22;57944;48.722;9.316;2022-07-11T15:02:52;28.30;65.80
70475;DHT22;57944;48.722;9.316;2022-07-11T15:05:35;29.60;64.80
70475;DHT22;57944;48.722;9.316;2022-07-11T15:08:05;30.90;61.70
70475;DHT22;57944;48.722;9.316;2022-07-11T15:10:51;31.30;61.10
70475;DHT22;57944;48.722;9.316;2022-07-11T15:13:33;32.40;59.30
70475;DHT22;57944;48.722;9.316;2022-07-11T15:16:04;33.20;58.40
70475;DHT22;57944;48.722;9.316;2022-07-11T15:18:34;32.30;57.00
70475;DHT22;57944;48.722;9.316;2022-07-11T15:21:05;31.00;58.60
70475;DHT22;57944;48.722;9.316;2022-07-11T15:23:35;29.90;60.10
70475;DHT22;57944;48.722;9.316;2022-07-11T15:26:08;29.40;61.50
70475;DHT22;57944;48.722;9.316;2022-07-11T15:28:38;29.50;63.00
70475;DHT22;57944;48.722;9.316;2022-07-11T15:31:10;29.20;62.30
70475;DHT22;57944;48.722;9.316;2022-07-11T15:33:41;28.70;63.50
70475;DHT22;57944;48.722;9.316;2022-07-11T15:36:16;28.40;64.30
70475;DHT22;57944;48.722;9.316;2022-07-11T15:38:47;28.10;64.00
70475;DHT22;57944;48.722;9.316;2022-07-11T15:41:20;28.30;64.00
70475;DHT22;57944;48.722;9.316;2022-07-11T15:43:50;28.10;64.80
70475;DHT22;57944;48.722;9.316;2022-07-11T15:46:21;27.60;65.70
70475;DHT22;57944;48.722;9.316;2022-07-11T15:49:00;28.00;67.30
70475;DHT22;57944;48.722;9.316;2022-07-11T15:51:30;28.90;64.80
70475;DHT22;57944;48.722;9.316;2022-07-11T15:54:01;28.40;64.50
70475;DHT22;57944;48.722;9.316;2022-07-11T15:56:34;28.60;65.20
70475;DHT22;57944;48.722;9.316;2022-07-11T15:59:04;29.20;64.30
70475;DHT22;57944;48.722;9.316;2022-07-11T16:01:34;29.30;63.20
70475;DHT22;57944;48.722;9.316;2022-07-11T16:04:06;28.90;64.20
70475;DHT22;57944;48.722;9.316;2022-07-11T16:06:37;28.30;64.20
70475;DHT22;57944;48.722;9.316;2022-07-11T16:09:07;28.40;65.50
70475;DHT22;57944;48.722;9.316;2022-07-11T16:11:39;28.00;65.70
70475;DHT22;57944;48.722;9.316;2022-07-11T16:14:09;27.40;66.30
70475;DHT22;57944;48.722;9.316;2022-07-11T16:16:40;26.90;66.90
70475;DHT22;57944;48.722;9.316;2022-07-11T16:19:14;26.80;67.90